sensor_id;sensor_type;location;lat;lon;timestamp;temperature;humidity
24412;DHT22;12544;46.760;15.942;2024-03-29T00:01:32;7.30;99.90
24412;DHT22;12544;46.760;15.942;2024-03-29T00:03:58;7.20;99.90
24412;DHT22;12544;46.760;15.942;2024-03-29T00:06:24;7.20;99.90
24412;DHT22;12544;46.760;15.942;2024-03-29T00:08:49;7.10;99.90
24412;DHT22;12544;46.760;15.942;2024-03-29T00:11:15;7.20;99.90
24412;DHT22;12544;46.760;15.942;2024-03-29T00:13:40;7.10;99.90
24412;DHT22;12544;46.760;15.942;2024-03-29T00:16:06;7.10;99.90
24412;DHT22;12544;46.760;15.942;2024-03-29T00:18:32;7.00;99.90
24412;DHT22;12544;46.760;15.942;2024-03-29T00:20:58;7.00;99.90
24412;DHT22;12544;46.760;15.942;2024-03-29T00:23:23;7.10;99.90
24412;DHT22;12544;46.760;15.942;2024-03-29T00:25:49;7.00;99.90
24412;DHT22;12544;46.760;15.942;2024-03-29T00:28:14;7.00;99.90
24412;DHT22;12544;46.760;15.942;2024-03-29T00:30:40;6.90;99.90
24412;DHT22;12544;46.760;15.942;2024-03-29T00:33:05;6.80;99.90
24412;DHT22;12544;46.760;15.942;2024-03-29T00:35:31;6.80;99.90
24412;DHT22;12544;46.760;15.942;2024-03-29T00:37:57;6.70;99.90
24412;DHT22;12544;46.760;15.942;2024-03-29T00:40:22;6.70;99.90
24412;DHT22;12544;46.760;15.942;2024-03-29T00:43:16;6.60;99.90
24412;DHT22;12544;46.760;15.942;2024-03-29T00:45:42;6.60;99.90
24412;DHT22;12544;46.760;15.942;2024-03-29T00:48:08;6.60;99.90
24412;DHT22;12544;46.760;15.942;2024-03-29T00:50:33;6.60;99.90
24412;DHT22;12544;46.760;15.942;2024-03-29T00:52:59;6.60;99.90
24412;DHT22;12544;46.760;15.942;2024-03-29T00:58:47;6.60;99.90
24412;DHT22;12544;46.760;15.942;2024-03-29T01:01:12;6.70;99.90
24412;DHT22;12544;46.760;15.942;2024-03-29T01:03:38;6.70;99.90
24412;DHT22;12544;46.760;15.942;2024-03-29T01:06:04;6.80;99.90
24412;DHT22;12544;46.760;15.942;2024-03-29T01:08:29;6.80;99.90
24412;DHT22;12544;46.760;15.942;2024-03-29T01:14:17;6.80;99.90
24412;DHT22;12544;46.760;15.942;2024-03-29T01:16:43;6.70;99.90
24412;DHT22;12544;46.760;15.942;2024-03-29T01:19:08;6.70;99.90
24412;DHT22;12544;46.760;15.942;2024-03-29T01:21:36;6.70;99.90
24412;DHT22;12544;46.760;15.942;2024-03-29T01:24:02;6.70;99.90
24412;DHT22;12544;46.760;15.942;2024-03-29T01:26:28;6.60;99.90
24412;DHT22;12544;46.760;15.942;2024-03-29T01:28:54;6.60;99.90
24412;DHT22;12544;46.760;15.942;2024-03-29T01:31:28;6.60;99.90
24412;DHT22;12544;46.760;15.942;2024-03-29T01:33:54;6.60;99.90
24412;DHT22;12544;46.760;15.942;2024-03-29T01:36:23;6.50;99.90
24412;DHT22;12544;46.760;15.942;2024-03-29T01:38:48;6.40;99.90
24412;DHT22;12544;46.760;15.942;2024-03-29T01:41:16;6.40;99.90
24412;DHT22;12544;46.760;15.942;2024-03-29T01:43:42;6.30;99.90
24412;DHT22;12544;46.760;15.942;2024-03-29T01:46:08;6.10;99.90
24412;DHT22;12544;46.760;15.942;2024-03-29T01:48:34;6.00;99.90
24412;DHT22;12544;46.760;15.942;2024-03-29T01:51:00;5.90;99.90
24412;DHT22;12544;46.760;15.942;2024-03-29T01:56:49;5.90;99.90
24412;DHT22;12544;46.760;15.942;2024-03-29T01:59:16;5.80;99.90
24412;DHT22;12544;46.760;15.942;2024-03-29T02:01:42;5.80;99.90
24412;DHT22;12544;46.760;15.942;2024-03-29T02:04:09;5.80;99.90
24412;DHT22;12544;46.760;15.942;2024-03-29T02:06:35;5.80;99.90
24412;DHT22;12544;46.760;15.942;2024-03-29T02:09:03;5.80;99.90
24412;DHT22;12544;46.760;15.942;2024-03-29T02:11:29;5.80;99.90
24412;DHT22;12544;46.760;15.942;2024-03-29T02:13:55;5.80;99.90
24412;DHT22;12544;46.760;15.942;2024-03-29T02:16:21;5.70;99.90
24412;DHT22;12544;46.760;15.942;2024-03-29T02:18:47;5.70;99.90
24412;DHT22;12544;46.760;15.942;2024-03-29T02:21:12;5.60;99.90
24412;DHT22;12544;46.760;15.942;2024-03-29T02:23:43;5.60;99.90
24412;DHT22;12544;46.760;15.942;2024-03-29T02:26:10;5.60;99.90
24412;DHT22;12544;46.760;15.942;2024-03-29T02:28:36;5.70;99.90
24412;DHT22;12544;46.760;15.942;2024-03-29T02:31:02;5.70;99.90
24412;DHT22;12544;46.760;15.942;2024-03-29T02:33:28;5.60;99.90
24412;DHT22;12544;46.760;15.942;2024-03-29T02:35:54;5.60;99.90
24412;DHT22;12544;46.760;15.942;2024-03-29T02:38:19;5.50;99.90
24412;DHT22;12544;46.760;15.942;2024-03-29T02:40:45;5.50;99.90
24412;DHT22;12544;46.760;15.942;2024-03-29T02:43:11;5.50;99.90
24412;DHT22;12544;46.760;15.942;2024-03-29T02:45:36;5.50;99.90
24412;DHT22;12544;46.760;15.942;2024-03-29T02:48:02;5.50;99.90
24412;DHT22;12544;46.760;15.942;2024-03-29T02:50:28;5.60;99.90
24412;DHT22;12544;46.760;15.942;2024-03-29T02:52:53;5.60;99.90
24412;DHT22;12544;46.760;15.942;2024-03-29T02:55:19;5.60;99.90
24412;DHT22;12544;46.760;15.942;2024-03-29T02:57:44;5.60;99.90
24412;DHT22;12544;46.760;15.942;2024-03-29T03:00:10;5.60;99.90
24412;DHT22;12544;46.760;15.942;2024-03-29T03:02:39;5.50;99.90
24412;DHT22;12544;46.760;15.942;2024-03-29T03:05:06;5.50;99.90
24412;DHT22;12544;46.760;15.942;2024-03-29T03:07:32;5.50;99.90
24412;DHT22;12544;46.760;15.942;2024-03-29T03:10:16;5.40;99.90
24412;DHT22;12544;46.760;15.942;2024-03-29T03:13:00;5.40;99.90
24412;DHT22;12544;46.760;15.942;2024-03-29T03:15:26;5.30;99.90
24412;DHT22;12544;46.760;15.942;2024-03-29T03:17:52;5.20;99.90
24412;DHT22;12544;46.760;15.942;2024-03-29T03:20:17;5.20;99.90
24412;DHT22;12544;46.760;15.942;2024-03-29T03:22:43;5.20;99.90
24412;DHT22;12544;46.760;15.942;2024-03-29T03:25:08;5.20;99.90
24412;DHT22;12544;46.760;15.942;2024-03-29T03:27:34;5.20;99.90
24412;DHT22;12544;46.760;15.942;2024-03-29T03:30:00;5.30;99.90
24412;DHT22;12544;46.760;15.942;2024-03-29T03:32:26;5.30;99.90
24412;DHT22;12544;46.760;15.942;2024-03-29T03:34:51;5.30;99.90
24412;DHT22;12544;46.760;15.942;2024-03-29T03:37:17;5.30;99.90
24412;DHT22;12544;46.760;15.942;2024-03-29T03:39:43;5.30;99.90
24412;DHT22;12544;46.760;15.942;2024-03-29T03:42:09;5.30;99.90
24412;DHT22;12544;46.760;15.942;2024-03-29T03:44:34;5.30;99.90
24412;DHT22;12544;46.760;15.942;2024-03-29T03:47:01;5.40;99.90
24412;DHT22;12544;46.760;15.942;2024-03-29T03:49:26;5.30;99.90
24412;DHT22;12544;46.760;15.942;2024-03-29T03:51:52;5.40;99.90
24412;DHT22;12544;46.760;15.942;2024-03-29T03:54:17;5.40;99.90
24412;DHT22;12544;46.760;15.942;2024-03-29T03:56:44;5.40;99.90
24412;DHT22;12544;46.760;15.942;2024-03-29T03:59:10;5.40;99.90
24412;DHT22;12544;46.760;15.942;2024-03-29T04:01:35;5.40;99.90
24412;DHT22;12544;46.760;15.942;2024-03-29T04:04:01;5.40;99.90
24412;DHT22;12544;46.760;15.942;2024-03-29T04:06:26;5.40;99.90
24412;DHT22;12544;46.760;15.942;2024-03-29T04:08:52;5.40;99.90
24412;DHT22;12544;46.760;15.942;2024-03-29T04:11:18;5.40;99.90
24412;DHT22;12544;46.760;15.942;2024-03-29T04:13:45;5.40;99.90
24412;DHT22;12544;46.760;15.942;2024-03-29T04:16:11;5.40;99.90
24412;DHT22;12544;46.760;15.942;2024-03-29T04:18:37;5.40;99.90
24412;DHT22;12544;46.760;15.942;2024-03-29T04:21:03;5.40;99.90
24412;DHT22;12544;46.760;15.942;2024-03-29T04:23:30;5.40;99.90
24412;DHT22;12544;46.760;15.942;2024-03-29T04:25:57;5.30;99.90
24412;DHT22;12544;46.760;15.942;2024-03-29T04:28:23;5.30;99.90
24412;DHT22;12544;46.760;15.942;2024-03-29T04:30:56;5.30;99.90
24412;DHT22;12544;46.760;15.942;2024-03-29T04:33:23;5.30;99.90
24412;DHT22;12544;46.760;15.942;2024-03-29T04:35:54;5.30;99.90
24412;DHT22;12544;46.760;15.942;2024-03-29T04:38:20;5.20;99.90
24412;DHT22;12544;46.760;15.942;2024-03-29T04:40:46;5.20;99.90
24412;DHT22;12544;46.760;15.942;2024-03-29T04:43:12;5.10;99.90
24412;DHT22;12544;46.760;15.942;2024-03-29T04:45:37;5.10;99.90
24412;DHT22;12544;46.760;15.942;2024-03-29T04:48:03;5.10;99.90
24412;DHT22;12544;46.760;15.942;2024-03-29T04:50:29;5.10;99.90
24412;DHT22;12544;46.760;15.942;2024-03-29T04:52:54;5.20;99.90
24412;DHT22;12544;46.760;15.942;2024-03-29T04:55:20;5.30;99.90
24412;DHT22;12544;46.760;15.942;2024-03-29T04:57:46;5.30;99.90
24412;DHT22;12544;46.760;15.942;2024-03-29T05:00:11;5.40;99.90
24412;DHT22;12544;46.760;15.942;2024-03-29T05:02:37;5.40;99.90
24412;DHT22;12544;46.760;15.942;2024-03-29T05:05:04;5.40;99.90
24412;DHT22;12544;46.760;15.942;2024-03-29T05:07:30;5.40;99.90
24412;DHT22;12544;46.760;15.942;2024-03-29T05:09:56;5.40;99.90
24412;DHT22;12544;46.760;15.942;2024-03-29T05:12:21;5.40;99.90
24412;DHT22;12544;46.760;15.942;2024-03-29T05:14:47;5.40;99.90
24412;DHT22;12544;46.760;15.942;2024-03-29T05:17:15;5.50;99.90
24412;DHT22;12544;46.760;15.942;2024-03-29T05:19:41;5.50;99.90
24412;DHT22;12544;46.760;15.942;2024-03-29T05:22:06;5.40;99.90
24412;DHT22;12544;46.760;15.942;2024-03-29T05:24:32;5.50;99.90
24412;DHT22;12544;46.760;15.942;2024-03-29T05:26:57;5.50;99.90
24412;DHT22;12544;46.760;15.942;2024-03-29T05:29:24;5.60;99.90
24412;DHT22;12544;46.760;15.942;2024-03-29T05:31:49;5.60;99.90
24412;DHT22;12544;46.760;15.942;2024-03-29T05:34:15;5.60;99.90
24412;DHT22;12544;46.760;15.942;2024-03-29T05:36:41;5.70;99.90
24412;DHT22;12544;46.760;15.942;2024-03-29T05:39:06;5.70;99.90
24412;DHT22;12544;46.760;15.942;2024-03-29T05:41:34;5.70;99.90
24412;DHT22;12544;46.760;15.942;2024-03-29T05:43:59;5.80;99.90
24412;DHT22;12544;46.760;15.942;2024-03-29T05:46:25;5.90;99.90
24412;DHT22;12544;46.760;15.942;2024-03-29T05:48:51;6.00;99.90
24412;DHT22;12544;46.760;15.942;2024-03-29T05:51:16;6.20;99.90
24412;DHT22;12544;46.760;15.942;2024-03-29T05:53:42;6.30;99.90
24412;DHT22;12544;46.760;15.942;2024-03-29T05:56:07;6.40;99.90
24412;DHT22;12544;46.760;15.942;2024-03-29T05:58:34;6.50;99.90
24412;DHT22;12544;46.760;15.942;2024-03-29T06:00:59;6.60;99.90
24412;DHT22;12544;46.760;15.942;2024-03-29T06:03:25;6.60;99.90
24412;DHT22;12544;46.760;15.942;2024-03-29T06:05:50;6.70;99.90
24412;DHT22;12544;46.760;15.942;2024-03-29T06:08:16;6.70;99.90
24412;DHT22;12544;46.760;15.942;2024-03-29T06:10:42;6.80;99.90
24412;DHT22;12544;46.760;15.942;2024-03-29T06:13:08;6.80;99.90
24412;DHT22;12544;46.760;15.942;2024-03-29T06:15:43;6.70;99.90
24412;DHT22;12544;46.760;15.942;2024-03-29T06:18:27;6.70;99.90
24412;DHT22;12544;46.760;15.942;2024-03-29T06:20:52;6.80;99.90
24412;DHT22;12544;46.760;15.942;2024-03-29T06:23:18;6.90;99.90
24412;DHT22;12544;46.760;15.942;2024-03-29T06:25:44;6.90;99.90
24412;DHT22;12544;46.760;15.942;2024-03-29T06:28:10;7.00;99.90
24412;DHT22;12544;46.760;15.942;2024-03-29T06:30:35;7.00;99.90
24412;DHT22;12544;46.760;15.942;2024-03-29T06:33:01;7.00;99.90
24412;DHT22;12544;46.760;15.942;2024-03-29T06:35:29;7.00;99.90
24412;DHT22;12544;46.760;15.942;2024-03-29T06:37:56;7.10;99.90
24412;DHT22;12544;46.760;15.942;2024-03-29T06:40:22;7.10;99.90
24412;DHT22;12544;46.760;15.942;2024-03-29T06:42:47;7.30;99.90
24412;DHT22;12544;46.760;15.942;2024-03-29T06:45:14;7.40;99.90
24412;DHT22;12544;46.760;15.942;2024-03-29T06:47:40;7.50;99.90
24412;DHT22;12544;46.760;15.942;2024-03-29T06:50:06;7.70;99.90
24412;DHT22;12544;46.760;15.942;2024-03-29T06:52:31;7.70;99.90
24412;DHT22;12544;46.760;15.942;2024-03-29T06:54:57;7.80;99.90
24412;DHT22;12544;46.760;15.942;2024-03-29T06:57:22;7.90;99.90
24412;DHT22;12544;46.760;15.942;2024-03-29T06:59:51;8.00;99.90
24412;DHT22;12544;46.760;15.942;2024-03-29T07:02:16;8.10;99.90
24412;DHT22;12544;46.760;15.942;2024-03-29T07:04:42;8.20;99.90
24412;DHT22;12544;46.760;15.942;2024-03-29T07:07:07;8.30;99.90
24412;DHT22;12544;46.760;15.942;2024-03-29T07:09:33;8.50;99.90
24412;DHT22;12544;46.760;15.942;2024-03-29T07:11:59;8.60;99.90
24412;DHT22;12544;46.760;15.942;2024-03-29T07:14:24;8.70;99.90
24412;DHT22;12544;46.760;15.942;2024-03-29T07:16:52;8.80;99.90
24412;DHT22;12544;46.760;15.942;2024-03-29T07:19:18;8.90;99.90
24412;DHT22;12544;46.760;15.942;2024-03-29T07:21:47;8.90;99.90
24412;DHT22;12544;46.760;15.942;2024-03-29T07:24:13;9.00;99.90
24412;DHT22;12544;46.760;15.942;2024-03-29T07:26:39;9.20;99.90
24412;DHT22;12544;46.760;15.942;2024-03-29T07:29:05;9.40;99.90
24412;DHT22;12544;46.760;15.942;2024-03-29T07:31:34;9.60;99.90
24412;DHT22;12544;46.760;15.942;2024-03-29T07:34:00;9.70;99.90
24412;DHT22;12544;46.760;15.942;2024-03-29T07:36:25;9.70;99.90
24412;DHT22;12544;46.760;15.942;2024-03-29T07:38:57;9.90;99.90
24412;DHT22;12544;46.760;15.942;2024-03-29T07:41:22;10.00;99.90
24412;DHT22;12544;46.760;15.942;2024-03-29T07:43:56;10.00;99.90
24412;DHT22;12544;46.760;15.942;2024-03-29T07:46:33;10.00;99.90
24412;DHT22;12544;46.760;15.942;2024-03-29T07:49:00;10.00;99.90
24412;DHT22;12544;46.760;15.942;2024-03-29T07:51:25;10.30;99.90
24412;DHT22;12544;46.760;15.942;2024-03-29T07:53:51;10.40;99.90
24412;DHT22;12544;46.760;15.942;2024-03-29T07:56:17;10.60;99.90
24412;DHT22;12544;46.760;15.942;2024-03-29T07:58:43;10.70;99.90
24412;DHT22;12544;46.760;15.942;2024-03-29T08:01:09;10.80;99.90
24412;DHT22;12544;46.760;15.942;2024-03-29T08:03:35;10.90;99.90
24412;DHT22;12544;46.760;15.942;2024-03-29T08:06:03;11.00;99.90
24412;DHT22;12544;46.760;15.942;2024-03-29T08:08:30;11.10;99.90
24412;DHT22;12544;46.760;15.942;2024-03-29T08:10:56;11.20;99.90
24412;DHT22;12544;46.760;15.942;2024-03-29T08:13:23;11.40;99.90
24412;DHT22;12544;46.760;15.942;2024-03-29T08:19:12;11.70;99.90
24412;DHT22;12544;46.760;15.942;2024-03-29T08:21:37;11.90;99.90
24412;DHT22;12544;46.760;15.942;2024-03-29T08:24:03;12.00;99.90
24412;DHT22;12544;46.760;15.942;2024-03-29T08:26:29;12.00;99.90
24412;DHT22;12544;46.760;15.942;2024-03-29T08:28:56;12.10;99.90
24412;DHT22;12544;46.760;15.942;2024-03-29T08:31:21;12.20;99.90
24412;DHT22;12544;46.760;15.942;2024-03-29T08:37:09;12.60;99.90
24412;DHT22;12544;46.760;15.942;2024-03-29T08:39:35;12.80;99.90
24412;DHT22;12544;46.760;15.942;2024-03-29T08:42:03;13.00;99.90
24412;DHT22;12544;46.760;15.942;2024-03-29T08:47:52;13.10;99.90
24412;DHT22;12544;46.760;15.942;2024-03-29T08:50:18;13.40;99.90
24412;DHT22;12544;46.760;15.942;2024-03-29T08:52:44;13.60;99.90
24412;DHT22;12544;46.760;15.942;2024-03-29T08:55:10;13.80;99.90
24412;DHT22;12544;46.760;15.942;2024-03-29T08:57:36;14.00;99.90
24412;DHT22;12544;46.760;15.942;2024-03-29T09:00:01;14.30;99.90
24412;DHT22;12544;46.760;15.942;2024-03-29T09:02:28;14.60;99.90
24412;DHT22;12544;46.760;15.942;2024-03-29T09:04:54;14.90;99.90
24412;DHT22;12544;46.760;15.942;2024-03-29T09:07:20;15.10;99.90
24412;DHT22;12544;46.760;15.942;2024-03-29T09:09:49;15.20;99.90
24412;DHT22;12544;46.760;15.942;2024-03-29T09:12:14;15.50;99.90
24412;DHT22;12544;46.760;15.942;2024-03-29T09:14:40;15.70;99.90
24412;DHT22;12544;46.760;15.942;2024-03-29T09:17:06;15.80;99.90
24412;DHT22;12544;46.760;15.942;2024-03-29T09:19:31;16.00;99.90
24412;DHT22;12544;46.760;15.942;2024-03-29T09:21:57;16.30;99.90
24412;DHT22;12544;46.760;15.942;2024-03-29T09:24:23;16.60;99.90
24412;DHT22;12544;46.760;15.942;2024-03-29T09:26:52;16.60;99.90
24412;DHT22;12544;46.760;15.942;2024-03-29T09:29:17;16.40;99.90
24412;DHT22;12544;46.760;15.942;2024-03-29T09:31:45;16.30;99.90
24412;DHT22;12544;46.760;15.942;2024-03-29T09:34:11;16.20;99.90
24412;DHT22;12544;46.760;15.942;2024-03-29T09:36:37;16.30;99.90
24412;DHT22;12544;46.760;15.942;2024-03-29T09:39:03;16.50;99.90
24412;DHT22;12544;46.760;15.942;2024-03-29T09:41:31;16.50;99.90
24412;DHT22;12544;46.760;15.942;2024-03-29T09:43:59;16.70;99.90
24412;DHT22;12544;46.760;15.942;2024-03-29T09:46:28;16.70;99.90
24412;DHT22;12544;46.760;15.942;2024-03-29T09:48:55;16.70;99.90
24412;DHT22;12544;46.760;15.942;2024-03-29T09:51:21;16.80;99.90
24412;DHT22;12544;46.760;15.942;2024-03-29T09:53:47;16.80;99.90
24412;DHT22;12544;46.760;15.942;2024-03-29T09:56:14;17.00;99.90
24412;DHT22;12544;46.760;15.942;2024-03-29T09:58:39;17.20;99.90
24412;DHT22;12544;46.760;15.942;2024-03-29T10:01:06;17.40;99.90
24412;DHT22;12544;46.760;15.942;2024-03-29T10:03:39;17.70;99.90
24412;DHT22;12544;46.760;15.942;2024-03-29T10:06:05;18.10;99.90
24412;DHT22;12544;46.760;15.942;2024-03-29T10:08:34;18.20;99.90
24412;DHT22;12544;46.760;15.942;2024-03-29T10:11:00;18.40;99.90
24412;DHT22;12544;46.760;15.942;2024-03-29T10:13:26;18.40;99.90
24412;DHT22;12544;46.760;15.942;2024-03-29T10:15:52;18.30;99.90
24412;DHT22;12544;46.760;15.942;2024-03-29T10:18:25;18.20;99.90
24412;DHT22;12544;46.760;15.942;2024-03-29T10:21:02;18.00;99.90
24412;DHT22;12544;46.760;15.942;2024-03-29T10:23:29;17.90;99.90
24412;DHT22;12544;46.760;15.942;2024-03-29T10:25:55;17.90;99.90
24412;DHT22;12544;46.760;15.942;2024-03-29T10:28:21;17.90;99.90
24412;DHT22;12544;46.760;15.942;2024-03-29T10:30:47;18.00;99.90
24412;DHT22;12544;46.760;15.942;2024-03-29T10:33:13;18.10;99.90
24412;DHT22;12544;46.760;15.942;2024-03-29T10:35:45;18.20;99.90
24412;DHT22;12544;46.760;15.942;2024-03-29T10:38:11;18.20;99.90
24412;DHT22;12544;46.760;15.942;2024-03-29T10:40:41;18.20;99.90
24412;DHT22;12544;46.760;15.942;2024-03-29T10:43:10;18.30;99.90
24412;DHT22;12544;46.760;15.942;2024-03-29T10:45:40;18.40;99.90
24412;DHT22;12544;46.760;15.942;2024-03-29T10:48:06;18.40;99.90
24412;DHT22;12544;46.760;15.942;2024-03-29T10:50:36;18.50;99.90
24412;DHT22;12544;46.760;15.942;2024-03-29T10:53:02;18.40;99.90
24412;DHT22;12544;46.760;15.942;2024-03-29T10:58:56;18.70;99.90
24412;DHT22;12544;46.760;15.942;2024-03-29T11:01:22;18.90;99.90
24412;DHT22;12544;46.760;15.942;2024-03-29T11:03:53;19.00;99.90
24412;DHT22;12544;46.760;15.942;2024-03-29T11:09:41;19.00;99.90
24412;DHT22;12544;46.760;15.942;2024-03-29T11:12:09;18.90;99.90
24412;DHT22;12544;46.760;15.942;2024-03-29T11:14:46;18.80;99.90
24412;DHT22;12544;46.760;15.942;2024-03-29T11:17:14;18.60;99.90
24412;DHT22;12544;46.760;15.942;2024-03-29T11:19:41;18.60;99.90
24412;DHT22;12544;46.760;15.942;2024-03-29T11:22:07;18.60;99.90
24412;DHT22;12544;46.760;15.942;2024-03-29T11:24:33;18.50;99.90
24412;DHT22;12544;46.760;15.942;2024-03-29T11:27:07;18.50;99.90
24412;DHT22;12544;46.760;15.942;2024-03-29T11:29:33;18.50;99.90
24412;DHT22;12544;46.760;15.942;2024-03-29T11:32:04;18.50;99.90
24412;DHT22;12544;46.760;15.942;2024-03-29T11:34:33;18.50;99.90
24412;DHT22;12544;46.760;15.942;2024-03-29T11:37:12;18.40;99.90
24412;DHT22;12544;46.760;15.942;2024-03-29T11:39:47;18.20;99.90
24412;DHT22;12544;46.760;15.942;2024-03-29T11:42:13;18.10;99.90
24412;DHT22;12544;46.760;15.942;2024-03-29T11:44:39;18.00;99.90
24412;DHT22;12544;46.760;15.942;2024-03-29T11:47:06;17.90;99.90
24412;DHT22;12544;46.760;15.942;2024-03-29T11:49:33;17.90;99.90
24412;DHT22;12544;46.760;15.942;2024-03-29T11:52:05;17.90;99.90
24412;DHT22;12544;46.760;15.942;2024-03-29T11:54:41;17.90;99.90
24412;DHT22;12544;46.760;15.942;2024-03-29T11:57:07;17.80;99.90
24412;DHT22;12544;46.760;15.942;2024-03-29T11:59:32;17.70;99.90
24412;DHT22;12544;46.760;15.942;2024-03-29T12:01:58;17.50;99.90
24412;DHT22;12544;46.760;15.942;2024-03-29T12:04:24;17.40;99.90
24412;DHT22;12544;46.760;15.942;2024-03-29T12:06:49;17.30;99.90
24412;DHT22;12544;46.760;15.942;2024-03-29T12:09:15;17.30;99.90
24412;DHT22;12544;46.760;15.942;2024-03-29T12:11:43;17.20;99.90
24412;DHT22;12544;46.760;15.942;2024-03-29T12:14:13;17.20;99.90
24412;DHT22;12544;46.760;15.942;2024-03-29T12:16:43;17.20;99.90
24412;DHT22;12544;46.760;15.942;2024-03-29T12:19:10;17.20;99.90
24412;DHT22;12544;46.760;15.942;2024-03-29T12:21:35;17.20;99.90
24412;DHT22;12544;46.760;15.942;2024-03-29T12:24:01;17.20;99.90
24412;DHT22;12544;46.760;15.942;2024-03-29T12:26:27;17.20;99.90
24412;DHT22;12544;46.760;15.942;2024-03-29T12:29:26;17.30;99.90
24412;DHT22;12544;46.760;15.942;2024-03-29T12:31:59;17.30;99.90
24412;DHT22;12544;46.760;15.942;2024-03-29T12:34:25;17.20;99.90
24412;DHT22;12544;46.760;15.942;2024-03-29T12:36:51;17.20;99.90
24412;DHT22;12544;46.760;15.942;2024-03-29T12:39:17;17.10;99.90
24412;DHT22;12544;46.760;15.942;2024-03-29T12:41:42;17.10;99.90
24412;DHT22;12544;46.760;15.942;2024-03-29T12:44:10;17.10;99.90
24412;DHT22;12544;46.760;15.942;2024-03-29T12:46:36;17.10;99.90
24412;DHT22;12544;46.760;15.942;2024-03-29T12:49:02;17.10;99.90
24412;DHT22;12544;46.760;15.942;2024-03-29T12:51:28;17.10;99.90
24412;DHT22;12544;46.760;15.942;2024-03-29T12:54:01;17.20;99.90
24412;DHT22;12544;46.760;15.942;2024-03-29T12:56:29;17.10;99.90
24412;DHT22;12544;46.760;15.942;2024-03-29T12:58:55;17.10;99.90
24412;DHT22;12544;46.760;15.942;2024-03-29T13:01:21;17.00;99.90
24412;DHT22;12544;46.760;15.942;2024-03-29T13:03:46;17.00;99.90
24412;DHT22;12544;46.760;15.942;2024-03-29T13:06:12;17.00;99.90
24412;DHT22;12544;46.760;15.942;2024-03-29T13:08:38;17.00;99.90
24412;DHT22;12544;46.760;15.942;2024-03-29T13:11:04;16.90;99.90
24412;DHT22;12544;46.760;15.942;2024-03-29T13:13:30;16.90;99.90
24412;DHT22;12544;46.760;15.942;2024-03-29T13:15:55;16.90;99.90
24412;DHT22;12544;46.760;15.942;2024-03-29T13:18:22;16.80;99.90
24412;DHT22;12544;46.760;15.942;2024-03-29T13:20:47;16.80;99.90
24412;DHT22;12544;46.760;15.942;2024-03-29T13:23:13;16.80;99.90
24412;DHT22;12544;46.760;15.942;2024-03-29T13:25:39;16.80;99.90
24412;DHT22;12544;46.760;15.942;2024-03-29T13:28:05;16.90;99.90
24412;DHT22;12544;46.760;15.942;2024-03-29T13:30:32;16.90;99.90
24412;DHT22;12544;46.760;15.942;2024-03-29T13:32:58;16.90;99.90
24412;DHT22;12544;46.760;15.942;2024-03-29T13:35:24;16.90;99.90
24412;DHT22;12544;46.760;15.942;2024-03-29T13:37:50;16.90;99.90
24412;DHT22;12544;46.760;15.942;2024-03-29T13:40:19;17.00;99.90
24412;DHT22;12544;46.760;15.942;2024-03-29T13:42:45;17.00;99.90
24412;DHT22;12544;46.760;15.942;2024-03-29T13:45:11;17.10;99.90
24412;DHT22;12544;46.760;15.942;2024-03-29T13:47:41;17.10;99.90
24412;DHT22;12544;46.760;15.942;2024-03-29T13:50:08;17.10;99.90
24412;DHT22;12544;46.760;15.942;2024-03-29T13:52:50;17.20;99.90
24412;DHT22;12544;46.760;15.942;2024-03-29T13:55:17;17.20;99.90
24412;DHT22;12544;46.760;15.942;2024-03-29T13:57:42;17.20;99.90
24412;DHT22;12544;46.760;15.942;2024-03-29T14:00:10;17.20;99.90
24412;DHT22;12544;46.760;15.942;2024-03-29T14:02:39;17.30;99.90
24412;DHT22;12544;46.760;15.942;2024-03-29T14:05:05;17.30;99.90
24412;DHT22;12544;46.760;15.942;2024-03-29T14:07:31;17.40;99.90
24412;DHT22;12544;46.760;15.942;2024-03-29T14:09:57;17.40;99.90
24412;DHT22;12544;46.760;15.942;2024-03-29T14:12:23;17.40;99.90
24412;DHT22;12544;46.760;15.942;2024-03-29T14:14:51;17.40;99.90
24412;DHT22;12544;46.760;15.942;2024-03-29T14:17:18;17.40;99.90
24412;DHT22;12544;46.760;15.942;2024-03-29T14:19:43;17.40;99.90
24412;DHT22;12544;46.760;15.942;2024-03-29T14:22:09;17.40;99.90
24412;DHT22;12544;46.760;15.942;2024-03-29T14:24:37;17.40;99.90
24412;DHT22;12544;46.760;15.942;2024-03-29T14:27:05;17.40;99.90
24412;DHT22;12544;46.760;15.942;2024-03-29T14:29:34;17.40;99.90
24412;DHT22;12544;46.760;15.942;2024-03-29T14:32:00;17.40;99.90
24412;DHT22;12544;46.760;15.942;2024-03-29T14:34:26;17.40;99.90
24412;DHT22;12544;46.760;15.942;2024-03-29T14:36:52;17.40;99.90
24412;DHT22;12544;46.760;15.942;2024-03-29T14:39:30;17.30;99.90
24412;DHT22;12544;46.760;15.942;2024-03-29T14:41:55;17.40;99.90
24412;DHT22;12544;46.760;15.942;2024-03-29T14:44:23;17.40;99.90
24412;DHT22;12544;46.760;15.942;2024-03-29T14:46:49;17.40;99.90
24412;DHT22;12544;46.760;15.942;2024-03-29T14:49:16;17.40;99.90
24412;DHT22;12544;46.760;15.942;2024-03-29T14:51:43;17.40;99.90
24412;DHT22;12544;46.760;15.942;2024-03-29T14:54:09;17.40;99.90
24412;DHT22;12544;46.760;15.942;2024-03-29T14:56:35;17.40;99.90
24412;DHT22;12544;46.760;15.942;2024-03-29T14:59:04;17.40;99.90
24412;DHT22;12544;46.760;15.942;2024-03-29T15:01:32;17.40;99.90
24412;DHT22;12544;46.760;15.942;2024-03-29T15:03:58;17.50;99.90
24412;DHT22;12544;46.760;15.942;2024-03-29T15:06:24;17.50;99.90
24412;DHT22;12544;46.760;15.942;2024-03-29T15:08:52;17.50;99.90
24412;DHT22;12544;46.760;15.942;2024-03-29T15:11:17;17.50;99.90
24412;DHT22;12544;46.760;15.942;2024-03-29T15:13:43;17.50;99.90
24412;DHT22;12544;46.760;15.942;2024-03-29T15:16:09;17.50;99.90
24412;DHT22;12544;46.760;15.942;2024-03-29T15:18:34;17.60;99.90
24412;DHT22;12544;46.760;15.942;2024-03-29T15:21:01;17.60;99.90
24412;DHT22;12544;46.760;15.942;2024-03-29T15:23:28;17.50;99.90
24412;DHT22;12544;46.760;15.942;2024-03-29T15:25:56;17.60;99.90
24412;DHT22;12544;46.760;15.942;2024-03-29T15:28:23;17.60;99.90
24412;DHT22;12544;46.760;15.942;2024-03-29T15:31:18;17.60;99.90
24412;DHT22;12544;46.760;15.942;2024-03-29T15:33:59;17.60;99.90
24412;DHT22;12544;46.760;15.942;2024-03-29T15:36:24;17.60;99.90
24412;DHT22;12544;46.760;15.942;2024-03-29T15:38:50;17.60;99.90
24412;DHT22;12544;46.760;15.942;2024-03-29T15:41:17;17.60;99.90
24412;DHT22;12544;46.760;15.942;2024-03-29T15:43:42;17.60;99.90
24412;DHT22;12544;46.760;15.942;2024-03-29T15:46:08;17.70;99.90
24412;DHT22;12544;46.760;15.942;2024-03-29T15:48:36;17.60;99.90